sensor_id;sensor_type;location;lat;lon;timestamp;pressure;altitude;pressure_sealevel;temperature;humidity
60974;BME280;46846;51.528;5.076;2022-09-01T00:01:45;101509.13;;;21.27;40.08
60974;BME280;46846;51.528;5.076;2022-09-01T00:04:15;101515.16;;;21.17;40.13
60974;BME280;46846;51.528;5.076;2022-09-01T00:06:41;101512.25;;;21.21;40.02
60974;BME280;46846;51.528;5.076;2022-09-01T00:09:10;101511.94;;;21.12;40.15
60974;BME280;46846;51.528;5.076;2022-09-01T00:11:37;101507.91;;;21.05;40.04
60974;BME280;46846;51.528;5.076;2022-09-01T00:14:04;101507.69;;;21.08;39.93
60974;BME280;46846;51.528;5.076;2022-09-01T00:16:31;101505.19;;;21.05;40.29
60974;BME280;46846;51.528;5.076;2022-09-01T00:18:56;101508.09;;;21.02;40.22
60974;BME280;46846;51.528;5.076;2022-09-01T00:21:25;101507.78;;;21.07;40.06
60974;BME280;46846;51.528;5.076;2022-09-01T00:23:51;101507.25;;;21.01;39.90
60974;BME280;46846;51.528;5.076;2022-09-01T00:26:16;101506.59;;;20.98;40.26
60974;BME280;46846;51.528;5.076;2022-09-01T00:28:42;101510.28;;;20.97;40.36
60974;BME280;46846;51.528;5.076;2022-09-01T00:31:08;101502.66;;;20.89;40.22
60974;BME280;46846;51.528;5.076;2022-09-01T00:33:35;101505.47;;;20.87;40.25
60974;BME280;46846;51.528;5.076;2022-09-01T00:36:02;101502.09;;;20.84;40.42
60974;BME280;46846;51.528;5.076;2022-09-01T00:38:29;101497.34;;;20.87;40.25
60974;BME280;46846;51.528;5.076;2022-09-01T00:40:54;101506.66;;;20.83;40.39
60974;BME280;46846;51.528;5.076;2022-09-01T00:43:44;101502.97;;;20.84;40.20
60974;BME280;46846;51.528;5.076;2022-09-01T00:46:12;101505.00;;;20.81;40.21
60974;BME280;46846;51.528;5.076;2022-09-01T00:48:38;101499.59;;;20.81;39.66
60974;BME280;46846;51.528;5.076;2022-09-01T00:51:05;101509.38;;;20.83;39.98
60974;BME280;46846;51.528;5.076;2022-09-01T00:53:32;101505.22;;;20.77;40.09
60974;BME280;46846;51.528;5.076;2022-09-01T00:55:58;101503.78;;;20.72;40.37
60974;BME280;46846;51.528;5.076;2022-09-01T00:58:24;101490.47;;;20.69;40.22
60974;BME280;46846;51.528;5.076;2022-09-01T01:00:52;101494.91;;;20.70;40.48
60974;BME280;46846;51.528;5.076;2022-09-01T01:03:18;101491.44;;;20.68;40.39
60974;BME280;46846;51.528;5.076;2022-09-01T01:05:48;101499.44;;;20.69;40.27
60974;BME280;46846;51.528;5.076;2022-09-01T01:08:19;101494.34;;;20.65;40.38
60974;BME280;46846;51.528;5.076;2022-09-01T01:10:51;101498.22;;;20.60;40.54
60974;BME280;46846;51.528;5.076;2022-09-01T01:13:17;101493.97;;;20.56;40.43
60974;BME280;46846;51.528;5.076;2022-09-01T01:15:43;101492.03;;;20.58;40.43
60974;BME280;46846;51.528;5.076;2022-09-01T01:18:15;101493.22;;;20.54;40.63
60974;BME280;46846;51.528;5.076;2022-09-01T01:20:41;101488.22;;;20.48;40.84
60974;BME280;46846;51.528;5.076;2022-09-01T01:23:38;101488.75;;;20.40;40.73
60974;BME280;46846;51.528;5.076;2022-09-01T01:26:07;101491.84;;;20.34;40.79
60974;BME280;46846;51.528;5.076;2022-09-01T01:28:36;101489.31;;;20.31;40.63
60974;BME280;46846;51.528;5.076;2022-09-01T01:31:07;101490.13;;;20.33;40.73
60974;BME280;46846;51.528;5.076;2022-09-01T01:33:42;101493.09;;;20.28;40.81
60974;BME280;46846;51.528;5.076;2022-09-01T01:36:30;101487.91;;;20.25;40.94
60974;BME280;46846;51.528;5.076;2022-09-01T01:38:58;101488.00;;;20.24;40.97
60974;BME280;46846;51.528;5.076;2022-09-01T01:41:26;101492.63;;;20.21;41.07
60974;BME280;46846;51.528;5.076;2022-09-01T01:43:51;101491.56;;;20.24;41.21
60974;BME280;46846;51.528;5.076;2022-09-01T01:46:17;101491.00;;;20.19;41.10
60974;BME280;46846;51.528;5.076;2022-09-01T01:48:43;101498.34;;;20.17;41.14
60974;BME280;46846;51.528;5.076;2022-09-01T01:51:09;101493.91;;;20.16;41.16
60974;BME280;46846;51.528;5.076;2022-09-01T01:53:36;101492.38;;;20.12;41.26
60974;BME280;46846;51.528;5.076;2022-09-01T01:56:03;101491.59;;;20.10;41.19
60974;BME280;46846;51.528;5.076;2022-09-01T01:58:30;101502.41;;;20.10;41.25
60974;BME280;46846;51.528;5.076;2022-09-01T02:00:56;101501.66;;;20.07;41.34
60974;BME280;46846;51.528;5.076;2022-09-01T02:03:26;101510.72;;;20.06;41.16
60974;BME280;46846;51.528;5.076;2022-09-01T02:05:55;101498.56;;;19.99;41.49
60974;BME280;46846;51.528;5.076;2022-09-01T02:08:22;101509.16;;;20.02;41.23
60974;BME280;46846;51.528;5.076;2022-09-01T02:10:52;101492.38;;;19.97;41.39
60974;BME280;46846;51.528;5.076;2022-09-01T02:13:21;101495.97;;;19.98;41.13
60974;BME280;46846;51.528;5.076;2022-09-01T02:15:51;101491.22;;;20.01;41.11
60974;BME280;46846;51.528;5.076;2022-09-01T02:18:27;101492.66;;;19.92;41.48
60974;BME280;46846;51.528;5.076;2022-09-01T02:20:53;101495.44;;;19.91;41.34
60974;BME280;46846;51.528;5.076;2022-09-01T02:23:20;101490.34;;;19.86;41.40
60974;BME280;46846;51.528;5.076;2022-09-01T02:25:56;101494.13;;;19.84;41.32
60974;BME280;46846;51.528;5.076;2022-09-01T02:28:25;101500.59;;;19.81;41.52
60974;BME280;46846;51.528;5.076;2022-09-01T02:30:52;101490.84;;;19.78;41.27
60974;BME280;46846;51.528;5.076;2022-09-01T02:33:20;101480.34;;;19.74;41.48
60974;BME280;46846;51.528;5.076;2022-09-01T02:35:54;101485.63;;;19.75;41.60
60974;BME280;46846;51.528;5.076;2022-09-01T02:38:21;101493.03;;;19.72;41.51
60974;BME280;46846;51.528;5.076;2022-09-01T02:40:51;101494.97;;;19.70;41.62
60974;BME280;46846;51.528;5.076;2022-09-01T02:43:18;101487.94;;;19.67;41.72
60974;BME280;46846;51.528;5.076;2022-09-01T02:45:50;101490.63;;;19.67;41.54
60974;BME280;46846;51.528;5.076;2022-09-01T02:48:37;101495.34;;;19.63;41.54
60974;BME280;46846;51.528;5.076;2022-09-01T02:51:09;101494.50;;;19.63;41.47
60974;BME280;46846;51.528;5.076;2022-09-01T02:53:37;101487.63;;;19.57;41.62
60974;BME280;46846;51.528;5.076;2022-09-01T02:56:05;101483.41;;;19.53;41.71
60974;BME280;46846;51.528;5.076;2022-09-01T02:58:34;101488.72;;;19.54;41.63
60974;BME280;46846;51.528;5.076;2022-09-01T03:01:17;101493.31;;;19.52;41.78
60974;BME280;46846;51.528;5.076;2022-09-01T03:03:50;101488.03;;;19.51;41.84
60974;BME280;46846;51.528;5.076;2022-09-01T03:06:17;101479.06;;;19.50;41.92
60974;BME280;46846;51.528;5.076;2022-09-01T03:08:45;101480.78;;;19.51;41.64
60974;BME280;46846;51.528;5.076;2022-09-01T03:11:11;101475.00;;;19.43;41.79
60974;BME280;46846;51.528;5.076;2022-09-01T03:13:39;101483.78;;;19.47;41.69
60974;BME280;46846;51.528;5.076;2022-09-01T03:16:06;101479.56;;;19.43;42.00
60974;BME280;46846;51.528;5.076;2022-09-01T03:18:32;101481.56;;;19.39;41.89
60974;BME280;46846;51.528;5.076;2022-09-01T03:20:58;101490.81;;;19.35;41.97
60974;BME280;46846;51.528;5.076;2022-09-01T03:23:24;101481.84;;;19.34;41.80
60974;BME280;46846;51.528;5.076;2022-09-01T03:25:49;101483.69;;;19.34;42.03
60974;BME280;46846;51.528;5.076;2022-09-01T03:28:15;101477.69;;;19.29;42.16
60974;BME280;46846;51.528;5.076;2022-09-01T03:30:49;101476.84;;;19.28;41.89
60974;BME280;46846;51.528;5.076;2022-09-01T03:33:17;101478.06;;;19.22;41.99
60974;BME280;46846;51.528;5.076;2022-09-01T03:35:43;101470.94;;;19.21;42.06
60974;BME280;46846;51.528;5.076;2022-09-01T03:38:09;101473.72;;;19.20;42.21
60974;BME280;46846;51.528;5.076;2022-09-01T03:40:37;101473.72;;;19.20;41.98
60974;BME280;46846;51.528;5.076;2022-09-01T03:43:06;101472.88;;;19.19;42.10
60974;BME280;46846;51.528;5.076;2022-09-01T03:45:38;101481.13;;;19.16;42.19
60974;BME280;46846;51.528;5.076;2022-09-01T03:48:05;101471.31;;;19.15;42.07
60974;BME280;46846;51.528;5.076;2022-09-01T03:50:40;101469.19;;;19.20;41.74
60974;BME280;46846;51.528;5.076;2022-09-01T03:53:19;101469.56;;;19.14;41.83
60974;BME280;46846;51.528;5.076;2022-09-01T03:55:48;101470.75;;;19.10;41.93
60974;BME280;46846;51.528;5.076;2022-09-01T03:58:16;101478.81;;;19.10;42.11
60974;BME280;46846;51.528;5.076;2022-09-01T04:00:51;101470.81;;;19.08;41.97
60974;BME280;46846;51.528;5.076;2022-09-01T04:03:21;101465.13;;;19.13;42.02
60974;BME280;46846;51.528;5.076;2022-09-01T04:05:49;101466.47;;;19.06;42.19
60974;BME280;46846;51.528;5.076;2022-09-01T04:08:16;101463.00;;;19.04;42.17
60974;BME280;46846;51.528;5.076;2022-09-01T04:10:49;101466.72;;;19.01;42.13
60974;BME280;46846;51.528;5.076;2022-09-01T04:13:25;101464.09;;;18.99;42.06
60974;BME280;46846;51.528;5.076;2022-09-01T04:15:52;101470.56;;;18.97;42.18
60974;BME280;46846;51.528;5.076;2022-09-01T04:18:18;101468.13;;;18.92;42.23
60974;BME280;46846;51.528;5.076;2022-09-01T04:20:54;101475.38;;;18.92;42.32
60974;BME280;46846;51.528;5.076;2022-09-01T04:23:24;101471.19;;;18.86;42.09
60974;BME280;46846;51.528;5.076;2022-09-01T04:26:06;101466.69;;;18.86;42.26
60974;BME280;46846;51.528;5.076;2022-09-01T04:28:37;101472.41;;;18.96;42.34
60974;BME280;46846;51.528;5.076;2022-09-01T04:31:16;101474.50;;;18.91;42.44
60974;BME280;46846;51.528;5.076;2022-09-01T04:33:45;101474.09;;;18.83;42.27
60974;BME280;46846;51.528;5.076;2022-09-01T04:36:21;101475.06;;;18.82;42.09
60974;BME280;46846;51.528;5.076;2022-09-01T04:38:50;101479.13;;;18.89;43.07
60974;BME280;46846;51.528;5.076;2022-09-01T04:41:20;101476.00;;;18.81;42.32
60974;BME280;46846;51.528;5.076;2022-09-01T04:43:48;101470.69;;;18.79;42.12
60974;BME280;46846;51.528;5.076;2022-09-01T04:46:14;101474.44;;;18.77;42.25
60974;BME280;46846;51.528;5.076;2022-09-01T04:48:40;101476.78;;;18.83;42.60
60974;BME280;46846;51.528;5.076;2022-09-01T04:51:08;101479.06;;;18.75;42.46
60974;BME280;46846;51.528;5.076;2022-09-01T04:53:35;101479.75;;;18.78;42.54
60974;BME280;46846;51.528;5.076;2022-09-01T04:56:03;101484.47;;;18.75;42.33
60974;BME280;46846;51.528;5.076;2022-09-01T04:58:29;101475.75;;;18.69;42.33
60974;BME280;46846;51.528;5.076;2022-09-01T05:00:55;101478.28;;;18.72;42.09
60974;BME280;46846;51.528;5.076;2022-09-01T05:03:21;101477.88;;;18.64;42.15
60974;BME280;46846;51.528;5.076;2022-09-01T05:05:48;101474.50;;;18.61;42.19
60974;BME280;46846;51.528;5.076;2022-09-01T05:08:19;101477.19;;;18.61;42.17
60974;BME280;46846;51.528;5.076;2022-09-01T05:10:49;101476.38;;;18.58;42.29
60974;BME280;46846;51.528;5.076;2022-09-01T05:13:18;101470.31;;;18.55;42.29
60974;BME280;46846;51.528;5.076;2022-09-01T05:15:45;101476.84;;;18.51;42.38
60974;BME280;46846;51.528;5.076;2022-09-01T05:18:15;101470.78;;;18.47;42.48
60974;BME280;46846;51.528;5.076;2022-09-01T05:20:48;101470.84;;;18.45;42.42
60974;BME280;46846;51.528;5.076;2022-09-01T05:23:13;101477.19;;;18.44;42.40
60974;BME280;46846;51.528;5.076;2022-09-01T05:25:42;101481.03;;;18.40;42.35
60974;BME280;46846;51.528;5.076;2022-09-01T05:28:09;101481.81;;;18.42;42.60
60974;BME280;46846;51.528;5.076;2022-09-01T05:30:40;101489.53;;;18.49;42.53
60974;BME280;46846;51.528;5.076;2022-09-01T05:33:07;101475.13;;;18.50;43.36
60974;BME280;46846;51.528;5.076;2022-09-01T05:35:37;101480.84;;;18.43;42.72
60974;BME280;46846;51.528;5.076;2022-09-01T05:38:05;101483.13;;;18.35;42.83
60974;BME280;46846;51.528;5.076;2022-09-01T05:40:33;101481.03;;;18.40;43.23
60974;BME280;46846;51.528;5.076;2022-09-01T05:42:58;101484.88;;;18.36;42.66
60974;BME280;46846;51.528;5.076;2022-09-01T05:45:25;101490.41;;;18.33;42.60
60974;BME280;46846;51.528;5.076;2022-09-01T05:47:50;101484.78;;;18.38;42.98
60974;BME280;46846;51.528;5.076;2022-09-01T05:50:19;101490.25;;;18.36;42.58
60974;BME280;46846;51.528;5.076;2022-09-01T05:52:45;101482.16;;;18.36;42.56
60974;BME280;46846;51.528;5.076;2022-09-01T05:55:12;101486.84;;;18.49;43.11
60974;BME280;46846;51.528;5.076;2022-09-01T05:57:39;101490.13;;;18.54;43.34
60974;BME280;46846;51.528;5.076;2022-09-01T06:00:07;101483.28;;;18.48;42.07
60974;BME280;46846;51.528;5.076;2022-09-01T06:02:38;101490.75;;;18.59;42.50
60974;BME280;46846;51.528;5.076;2022-09-01T06:05:05;101491.38;;;18.48;42.70
60974;BME280;46846;51.528;5.076;2022-09-01T06:07:31;101488.59;;;18.50;42.80
60974;BME280;46846;51.528;5.076;2022-09-01T06:09:56;101493.03;;;18.51;42.46
60974;BME280;46846;51.528;5.076;2022-09-01T06:12:21;101497.03;;;18.43;41.98
60974;BME280;46846;51.528;5.076;2022-09-01T06:14:50;101488.34;;;18.38;42.32
60974;BME280;46846;51.528;5.076;2022-09-01T06:17:18;101490.06;;;18.39;42.11
60974;BME280;46846;51.528;5.076;2022-09-01T06:19:47;101492.50;;;18.44;42.50
60974;BME280;46846;51.528;5.076;2022-09-01T06:22:13;101491.28;;;18.34;42.29
60974;BME280;46846;51.528;5.076;2022-09-01T06:24:39;101491.28;;;18.50;43.06
60974;BME280;46846;51.528;5.076;2022-09-01T06:27:06;101493.19;;;18.48;42.54
60974;BME280;46846;51.528;5.076;2022-09-01T06:29:35;101490.22;;;18.52;42.45
60974;BME280;46846;51.528;5.076;2022-09-01T06:32:05;101494.22;;;18.45;42.28
60974;BME280;46846;51.528;5.076;2022-09-01T06:34:34;101495.44;;;18.39;42.73
60974;BME280;46846;51.528;5.076;2022-09-01T06:37:00;101493.09;;;18.49;42.13
60974;BME280;46846;51.528;5.076;2022-09-01T06:39:25;101495.09;;;18.45;42.28
60974;BME280;46846;51.528;5.076;2022-09-01T06:41:51;101492.69;;;18.41;42.11
60974;BME280;46846;51.528;5.076;2022-09-01T06:44:17;101501.72;;;18.40;42.91
60974;BME280;46846;51.528;5.076;2022-09-01T06:46:50;101501.38;;;18.30;42.82
60974;BME280;46846;51.528;5.076;2022-09-01T06:49:16;101505.13;;;18.43;42.30
60974;BME280;46846;51.528;5.076;2022-09-01T06:51:42;101505.00;;;18.45;43.04
60974;BME280;46846;51.528;5.076;2022-09-01T06:54:07;101505.53;;;18.36;42.20
60974;BME280;46846;51.528;5.076;2022-09-01T06:56:33;101514.66;;;18.49;42.00
60974;BME280;46846;51.528;5.076;2022-09-01T06:59:00;101511.28;;;18.45;42.38
60974;BME280;46846;51.528;5.076;2022-09-01T07:01:30;101517.09;;;18.54;42.21
60974;BME280;46846;51.528;5.076;2022-09-01T07:03:56;101511.47;;;18.42;42.29
60974;BME280;46846;51.528;5.076;2022-09-01T07:06:22;101511.09;;;18.49;42.20
60974;BME280;46846;51.528;5.076;2022-09-01T07:08:54;101512.31;;;18.43;42.29
60974;BME280;46846;51.528;5.076;2022-09-01T07:11:26;101514.59;;;18.51;42.24
60974;BME280;46846;51.528;5.076;2022-09-01T07:13:56;101512.03;;;18.48;42.27
60974;BME280;46846;51.528;5.076;2022-09-01T07:16:24;101514.22;;;18.57;42.25
60974;BME280;46846;51.528;5.076;2022-09-01T07:18:52;101522.91;;;18.62;43.19
60974;BME280;46846;51.528;5.076;2022-09-01T07:21:20;101522.91;;;18.62;42.86
60974;BME280;46846;51.528;5.076;2022-09-01T07:23:46;101520.75;;;18.53;42.92
60974;BME280;46846;51.528;5.076;2022-09-01T07:26:12;101521.25;;;18.59;42.79
60974;BME280;46846;51.528;5.076;2022-09-01T07:28:47;101525.44;;;18.65;42.08
60974;BME280;46846;51.528;5.076;2022-09-01T07:31:19;101519.94;;;18.67;42.81
60974;BME280;46846;51.528;5.076;2022-09-01T07:33:47;101524.22;;;18.71;42.33
60974;BME280;46846;51.528;5.076;2022-09-01T07:36:14;101517.00;;;18.71;42.02
60974;BME280;46846;51.528;5.076;2022-09-01T07:38:40;101523.09;;;18.75;42.95
60974;BME280;46846;51.528;5.076;2022-09-01T07:41:07;101522.81;;;18.80;43.06
60974;BME280;46846;51.528;5.076;2022-09-01T07:43:33;101520.13;;;18.80;42.89
60974;BME280;46846;51.528;5.076;2022-09-01T07:45:58;101528.09;;;18.81;42.81
60974;BME280;46846;51.528;5.076;2022-09-01T07:48:29;101524.59;;;18.95;43.35
60974;BME280;46846;51.528;5.076;2022-09-01T07:50:55;101519.78;;;19.00;43.41
60974;BME280;46846;51.528;5.076;2022-09-01T07:53:27;101527.09;;;18.98;42.48
60974;BME280;46846;51.528;5.076;2022-09-01T07:55:57;101528.94;;;18.98;43.17
60974;BME280;46846;51.528;5.076;2022-09-01T07:58:26;101526.34;;;18.96;42.92
60974;BME280;46846;51.528;5.076;2022-09-01T08:00:54;101526.13;;;18.99;42.65
60974;BME280;46846;51.528;5.076;2022-09-01T08:03:24;101526.97;;;19.16;43.66
60974;BME280;46846;51.528;5.076;2022-09-01T08:05:50;101520.53;;;19.19;42.79
60974;BME280;46846;51.528;5.076;2022-09-01T08:08:21;101523.94;;;19.22;42.79
60974;BME280;46846;51.528;5.076;2022-09-01T08:10:47;101524.13;;;19.19;42.55
60974;BME280;46846;51.528;5.076;2022-09-01T08:13:13;101526.25;;;19.29;43.32
60974;BME280;46846;51.528;5.076;2022-09-01T08:15:39;101529.72;;;19.31;42.83
60974;BME280;46846;51.528;5.076;2022-09-01T08:18:05;101518.56;;;19.37;42.91
60974;BME280;46846;51.528;5.076;2022-09-01T08:20:32;101522.16;;;19.52;43.35
60974;BME280;46846;51.528;5.076;2022-09-01T08:23:02;101518.22;;;19.58;43.25
60974;BME280;46846;51.528;5.076;2022-09-01T08:25:28;101520.53;;;19.64;43.29
60974;BME280;46846;51.528;5.076;2022-09-01T08:27:53;101524.59;;;19.71;42.77
60974;BME280;46846;51.528;5.076;2022-09-01T08:30:18;101524.09;;;19.79;42.60
60974;BME280;46846;51.528;5.076;2022-09-01T08:32:44;101523.41;;;19.90;42.98
60974;BME280;46846;51.528;5.076;2022-09-01T08:35:10;101512.34;;;19.94;43.15
60974;BME280;46846;51.528;5.076;2022-09-01T08:37:37;101523.44;;;20.04;42.90
60974;BME280;46846;51.528;5.076;2022-09-01T08:40:04;101511.28;;;20.12;42.77
60974;BME280;46846;51.528;5.076;2022-09-01T08:42:43;101514.34;;;20.20;42.21
60974;BME280;46846;51.528;5.076;2022-09-01T08:45:26;101512.97;;;20.27;42.50
60974;BME280;46846;51.528;5.076;2022-09-01T08:47:55;101522.44;;;20.34;42.36
60974;BME280;46846;51.528;5.076;2022-09-01T08:50:22;101518.66;;;20.37;42.44
60974;BME280;46846;51.528;5.076;2022-09-01T08:52:57;101508.13;;;20.47;42.22
60974;BME280;46846;51.528;5.076;2022-09-01T08:55:40;101514.09;;;20.52;42.24
60974;BME280;46846;51.528;5.076;2022-09-01T08:58:09;101513.97;;;20.54;42.19
60974;BME280;46846;51.528;5.076;2022-09-01T09:00:40;101518.97;;;20.60;42.14
60974;BME280;46846;51.528;5.076;2022-09-01T09:03:37;101516.94;;;20.63;42.14
60974;BME280;46846;51.528;5.076;2022-09-01T09:06:14;101513.75;;;20.71;42.24
60974;BME280;46846;51.528;5.076;2022-09-01T09:09:10;101504.25;;;20.79;42.19
60974;BME280;46846;51.528;5.076;2022-09-01T09:17:09;101511.13;;;20.97;41.87
60974;BME280;46846;51.528;5.076;2022-09-01T09:19:41;101506.28;;;21.02;40.88
60974;BME280;46846;51.528;5.076;2022-09-01T09:22:10;101505.06;;;21.07;41.28
60974;BME280;46846;51.528;5.076;2022-09-01T09:24:52;101503.25;;;21.07;42.31
60974;BME280;46846;51.528;5.076;2022-09-01T09:29:46;101496.22;;;21.17;42.20
60974;BME280;46846;51.528;5.076;2022-09-01T09:32:12;101503.16;;;21.22;41.98
60974;BME280;46846;51.528;5.076;2022-09-01T09:34:40;101503.81;;;21.25;41.99
60974;BME280;46846;51.528;5.076;2022-09-01T09:37:26;101497.75;;;21.35;40.64
60974;BME280;46846;51.528;5.076;2022-09-01T09:40:15;101496.25;;;21.43;39.99
60974;BME280;46846;51.528;5.076;2022-09-01T09:42:58;101494.19;;;21.47;41.30
60974;BME280;46846;51.528;5.076;2022-09-01T09:45:39;101492.13;;;21.51;41.95
60974;BME280;46846;51.528;5.076;2022-09-01T09:48:25;101491.72;;;21.57;39.88
60974;BME280;46846;51.528;5.076;2022-09-01T09:50:51;101486.06;;;21.60;41.71
60974;BME280;46846;51.528;5.076;2022-09-01T09:53:26;101485.72;;;21.65;39.31
60974;BME280;46846;51.528;5.076;2022-09-01T09:58:22;101481.31;;;21.77;40.60
60974;BME280;46846;51.528;5.076;2022-09-01T10:06:13;101480.31;;;21.91;39.75
60974;BME280;46846;51.528;5.076;2022-09-01T10:08:44;101470.97;;;21.95;41.10
60974;BME280;46846;51.528;5.076;2022-09-01T10:11:23;101473.47;;;21.98;40.68
60974;BME280;46846;51.528;5.076;2022-09-01T10:13:51;101462.31;;;22.03;39.89
60974;BME280;46846;51.528;5.076;2022-09-01T10:16:37;101462.94;;;22.06;40.78
60974;BME280;46846;51.528;5.076;2022-09-01T10:19:06;101469.75;;;22.12;39.11
60974;BME280;46846;51.528;5.076;2022-09-01T10:21:40;101468.56;;;22.16;40.57
60974;BME280;46846;51.528;5.076;2022-09-01T10:24:16;101455.41;;;22.23;40.99
60974;BME280;46846;51.528;5.076;2022-09-01T10:26:45;101467.88;;;22.25;37.46
60974;BME280;46846;51.528;5.076;2022-09-01T10:29:20;101462.97;;;22.31;40.75
60974;BME280;46846;51.528;5.076;2022-09-01T10:31:47;101463.59;;;22.34;36.59
60974;BME280;46846;51.528;5.076;2022-09-01T10:34:15;101457.06;;;22.37;40.60
60974;BME280;46846;51.528;5.076;2022-09-01T10:36:44;101464.00;;;22.41;39.58
60974;BME280;46846;51.528;5.076;2022-09-01T10:39:15;101453.69;;;22.46;37.43
60974;BME280;46846;51.528;5.076;2022-09-01T10:44:19;101456.72;;;22.55;37.82
60974;BME280;46846;51.528;5.076;2022-09-01T10:46:45;101453.75;;;22.58;35.74
60974;BME280;46846;51.528;5.076;2022-09-01T10:49:18;101445.25;;;22.62;36.38
60974;BME280;46846;51.528;5.076;2022-09-01T10:51:45;101452.19;;;22.66;33.14
60974;BME280;46846;51.528;5.076;2022-09-01T10:57:10;101448.78;;;22.76;39.79
60974;BME280;46846;51.528;5.076;2022-09-01T10:59:45;101448.03;;;22.74;36.34
60974;BME280;46846;51.528;5.076;2022-09-01T11:02:15;101446.69;;;22.79;38.95
60974;BME280;46846;51.528;5.076;2022-09-01T11:10:07;101436.22;;;22.86;38.09
60974;BME280;46846;51.528;5.076;2022-09-01T11:12:46;101444.03;;;22.91;36.23
60974;BME280;46846;51.528;5.076;2022-09-01T11:17:54;101438.34;;;22.94;38.16
60974;BME280;46846;51.528;5.076;2022-09-01T11:25:46;101433.19;;;23.02;34.55
60974;BME280;46846;51.528;5.076;2022-09-01T11:30:47;101436.25;;;23.09;32.83
60974;BME280;46846;51.528;5.076;2022-09-01T11:36:19;101427.16;;;23.10;35.92
60974;BME280;46846;51.528;5.076;2022-09-01T11:38:51;101426.03;;;23.13;37.22
60974;BME280;46846;51.528;5.076;2022-09-01T11:41:27;101412.22;;;23.16;35.12
60974;BME280;46846;51.528;5.076;2022-09-01T11:43:57;101419.28;;;23.18;33.13
60974;BME280;46846;51.528;5.076;2022-09-01T11:46:32;101421.09;;;23.18;34.95
60974;BME280;46846;51.528;5.076;2022-09-01T11:49:02;101419.00;;;23.21;31.09
60974;BME280;46846;51.528;5.076;2022-09-01T11:51:57;101416.19;;;23.23;34.26
60974;BME280;46846;51.528;5.076;2022-09-01T11:54:25;101414.94;;;23.27;33.32
60974;BME280;46846;51.528;5.076;2022-09-01T11:56:52;101421.03;;;23.31;35.98
60974;BME280;46846;51.528;5.076;2022-09-01T11:59:35;101417.47;;;23.30;33.11
60974;BME280;46846;51.528;5.076;2022-09-01T12:02:01;101407.44;;;23.31;33.41
60974;BME280;46846;51.528;5.076;2022-09-01T12:04:33;101413.28;;;23.38;30.57
60974;BME280;46846;51.528;5.076;2022-09-01T12:07:04;101401.66;;;23.47;36.29
60974;BME280;46846;51.528;5.076;2022-09-01T12:09:50;101403.66;;;23.45;36.68
60974;BME280;46846;51.528;5.076;2022-09-01T12:12:38;101405.97;;;23.49;35.16
60974;BME280;46846;51.528;5.076;2022-09-01T12:15:23;101401.91;;;23.55;34.20
60974;BME280;46846;51.528;5.076;2022-09-01T12:17:49;101399.91;;;23.57;30.21
60974;BME280;46846;51.528;5.076;2022-09-01T12:20:29;101395.47;;;23.68;33.45
60974;BME280;46846;51.528;5.076;2022-09-01T12:22:57;101393.59;;;23.68;33.20
60974;BME280;46846;51.528;5.076;2022-09-01T12:25:29;101390.53;;;23.73;32.35
60974;BME280;46846;51.528;5.076;2022-09-01T12:27:57;101388.28;;;23.78;30.50
60974;BME280;46846;51.528;5.076;2022-09-01T12:30:24;101388.06;;;23.81;31.18
60974;BME280;46846;51.528;5.076;2022-09-01T12:32:50;101385.34;;;23.81;36.27
60974;BME280;46846;51.528;5.076;2022-09-01T12:35:21;101390.63;;;23.83;36.57
60974;BME280;46846;51.528;5.076;2022-09-01T12:37:47;101399.16;;;23.89;30.58
60974;BME280;46846;51.528;5.076;2022-09-01T12:40:31;101390.50;;;23.96;33.48
60974;BME280;46846;51.528;5.076;2022-09-01T12:42:57;101391.34;;;23.96;36.09
60974;BME280;46846;51.528;5.076;2022-09-01T12:45:48;101385.91;;;23.96;33.02
60974;BME280;46846;51.528;5.076;2022-09-01T12:48:32;101388.22;;;24.01;36.72
60974;BME280;46846;51.528;5.076;2022-09-01T12:51:01;101384.03;;;24.08;31.46
60974;BME280;46846;51.528;5.076;2022-09-01T12:53:28;101387.25;;;24.13;36.72
60974;BME280;46846;51.528;5.076;2022-09-01T12:56:04;101371.78;;;24.14;37.40
60974;BME280;46846;51.528;5.076;2022-09-01T12:58:31;101373.16;;;24.20;32.29
60974;BME280;46846;51.528;5.076;2022-09-01T13:01:01;101375.34;;;24.26;34.49
60974;BME280;46846;51.528;5.076;2022-09-01T13:03:29;101373.56;;;24.36;29.31
60974;BME280;46846;51.528;5.076;2022-09-01T13:05:57;101378.72;;;24.39;34.50
60974;BME280;46846;51.528;5.076;2022-09-01T13:08:33;101366.59;;;24.43;34.79
60974;BME280;46846;51.528;5.076;2022-09-01T13:11:05;101370.66;;;24.49;35.99
60974;BME280;46846;51.528;5.076;2022-09-01T13:13:31;101362.09;;;24.54;30.75
60974;BME280;46846;51.528;5.076;2022-09-01T13:15:58;101367.28;;;24.57;34.44
60974;BME280;46846;51.528;5.076;2022-09-01T13:18:37;101357.72;;;24.63;33.11
60974;BME280;46846;51.528;5.076;2022-09-01T13:21:03;101366.81;;;24.73;26.83
60974;BME280;46846;51.528;5.076;2022-09-01T13:23:29;101364.69;;;24.77;35.22
60974;BME280;46846;51.528;5.076;2022-09-01T13:25:55;101353.34;;;24.71;30.78
60974;BME280;46846;51.528;5.076;2022-09-01T13:28:21;101347.91;;;24.71;27.27
60974;BME280;46846;51.528;5.076;2022-09-01T13:30:53;101357.06;;;24.49;29.11
60974;BME280;46846;51.528;5.076;2022-09-01T13:33:20;101352.69;;;24.58;29.38
60974;BME280;46846;51.528;5.076;2022-09-01T13:35:47;101360.84;;;24.58;28.76
60974;BME280;46846;51.528;5.076;2022-09-01T13:38:12;101348.88;;;24.49;26.83
60974;BME280;46846;51.528;5.076;2022-09-01T13:40:40;101346.97;;;24.61;27.75
60974;BME280;46846;51.528;5.076;2022-09-01T13:43:06;101339.28;;;24.66;28.25
60974;BME280;46846;51.528;5.076;2022-09-01T13:45:32;101338.22;;;24.79;26.68